Time;durP1;ratioP1;P1;durP2;ratioP2;P2;SDS_P1;SDS_P2;PMS_P1;PMS_P2;Temp;Humidity;BMP_temperature;BMP_pressure;BME280_temperature;BME280_humidity;BME280_pressure;Samples;Min_cycle;Max_cycle;Signal;HPM_P1;HPM_P2
2021/11/10 00:00:11;;;;;;;7.07;3.78;;;4.10;99.90;;;;;;5071485;28;20227;-59
2021/11/10 00:02:42;;;;;;;6.65;4.53;;;4.00;99.90;;;;;;5072300;28;20250;-60
2021/11/10 00:05:12;;;;;;;3.92;3.53;;;4.00;99.90;;;;;;5071408;28;20219;-61
2021/11/10 00:07:41;;;;;;;9.57;4.88;;;3.90;99.90;;;;;;5072190;28;20187;-62
2021/11/10 00:10:10;;;;;;;7.72;3.90;;;3.90;99.90;;;;;;5071584;28;20288;-60
2021/11/10 00:12:39;;;;;;;5.60;4.28;;;3.80;99.90;;;;;;5072020;28;20215;-60
2021/11/10 00:15:10;;;;;;;4.45;3.95;;;3.80;99.90;;;;;;5086491;28;20750;-62
2021/11/10 00:17:39;;;;;;;8.20;4.28;;;3.70;99.90;;;;;;5092437;28;20187;-62
2021/11/10 00:20:08;;;;;;;7.00;4.60;;;3.70;99.90;;;;;;5090094;28;20272;-60
2021/11/10 00:22:37;;;;;;;8.70;4.40;;;3.70;99.90;;;;;;5092344;28;20630;-60
2021/11/10 00:25:07;;;;;;;6.05;4.38;;;3.80;99.90;;;;;;5091224;28;20287;-61
2021/11/10 00:27:35;;;;;;;4.97;4.30;;;3.70;99.90;;;;;;5073882;28;20573;-62
2021/11/10 00:30:04;;;;;;;5.50;4.45;;;3.70;99.90;;;;;;5071581;28;20636;-60
2021/11/10 00:32:33;;;;;;;6.07;4.78;;;3.60;99.90;;;;;;5071797;28;20257;-61
2021/11/10 00:35:03;;;;;;;6.53;4.22;;;3.60;99.90;;;;;;5088623;28;20734;-61
2021/11/10 00:37:31;;;;;;;9.80;5.10;;;3.60;99.90;;;;;;5091681;28;20191;-62
2021/11/10 00:39:59;;;;;;;4.95;4.07;;;3.70;99.90;;;;;;5090386;28;20246;-60
2021/11/10 00:42:28;;;;;;;5.97;4.93;;;3.70;99.90;;;;;;5074907;28;20253;-60
2021/11/10 00:44:56;;;;;;;8.13;5.60;;;3.70;99.90;;;;;;5069849;28;20212;-61
2021/11/10 00:47:24;;;;;;;9.20;5.00;;;3.60;99.90;;;;;;5070537;28;20561;-61
2021/11/10 00:49:53;;;;;;;6.38;5.20;;;3.60;99.90;;;;;;5071135;28;20669;-61
2021/11/10 00:52:22;;;;;;;7.28;5.57;;;3.60;99.90;;;;;;5070473;28;20223;-60
2021/11/10 00:54:51;;;;;;;6.22;4.85;;;3.60;99.90;;;;;;5070988;28;20310;-61
2021/11/10 00:57:19;;;;;;;5.45;4.85;;;3.60;99.90;;;;;;5071312;28;20204;-61
2021/11/10 00:59:47;;;;;;;9.43;7.28;;;3.60;99.90;;;;;;5074368;28;20223;-60
2021/11/10 01:02:16;;;;;;;10.18;5.82;;;3.50;99.90;;;;;;5075654;28;20192;-60
2021/11/10 01:04:44;;;;;;;8.85;5.50;;;;;;;;;;5092195;28;20218;-61
2021/11/10 01:07:14;;;;;;;4.13;3.70;;;3.30;99.90;;;;;;5078143;28;20229;-62
2021/11/10 01:09:44;;;;;;;4.18;3.67;;;;;;;;;;5075204;28;20215;-60
2021/11/10 01:12:13;;;;;;;5.93;4.05;;;3.30;99.90;;;;;;5075587;28;20208;-59
2021/11/10 01:14:43;;;;;;;7.28;4.07;;;;;;;;;;5085169;28;20221;-62
2021/11/10 01:17:15;;;;;;;10.52;3.75;;;;;;;;;;5094684;28;20534;-62
2021/11/10 01:19:44;;;;;;;7.22;4.53;;;;;;;;;;5089626;28;20589;-61
2021/11/10 01:22:15;;;;;;;4.82;4.03;;;;;;;;;;5074330;28;20190;-60
2021/11/10 01:24:44;;;;;;;6.93;3.72;;;3.20;99.90;;;;;;5072849;28;20652;-62
2021/11/10 01:27:14;;;;;;;5.00;4.20;;;3.10;99.90;;;;;;5074314;28;20200;-61
2021/11/10 01:29:46;;;;;;;5.70;4.70;;;3.10;99.90;;;;;;5073049;28;20795;-61
2021/11/10 01:32:15;;;;;;;5.45;3.78;;;3.10;99.90;;;;;;5074059;28;20220;-60
2021/11/10 01:34:45;;;;;;;5.32;3.42;;;3.10;99.90;;;;;;5073074;28;20720;-61
2021/11/10 01:37:19;;;;;;;3.03;2.72;;;3.10;99.90;;;;;;5074049;28;20192;-62
2021/11/10 01:39:49;;;;;;;5.03;4.05;;;3.00;99.90;;;;;;5072974;28;20273;-60
2021/11/10 01:42:25;;;;;;;5.40;3.90;;;3.00;99.90;;;;;;5092631;28;20272;-60
2021/11/10 01:44:53;;;;;;;7.63;4.90;;;3.10;99.90;;;;;;5093043;28;20219;-61
2021/11/10 01:47:22;;;;;;;5.18;4.00;;;2.90;99.90;;;;;;5094205;28;20191;-62
2021/11/10 01:49:54;;;;;;;5.35;4.22;;;2.90;99.90;;;;;;5093414;28;20222;-60
2021/11/10 01:52:23;;;;;;;5.13;4.60;;;2.90;99.90;;;;;;5073471;28;20689;-60
2021/11/10 01:54:52;;;;;;;7.03;4.80;;;3.10;99.90;;;;;;5072652;28;20368;-63
2021/11/10 01:57:26;;;;;;;4.85;3.80;;;3.20;99.90;;;;;;5073484;28;20196;-62
2021/11/10 02:00:09;;;;;;;5.72;4.20;;;3.10;99.90;;;;;;5072798;28;20223;-61
2021/11/10 02:02:58;;;;;;;6.43;4.82;;;3.10;99.90;;;;;;5073279;28;20675;-61
2021/11/10 02:05:45;;;;;;;5.65;4.68;;;3.00;99.90;;;;;;5074176;28;20280;-62
2021/11/10 02:08:29;;;;;;;6.25;4.20;;;2.90;99.90;;;;;;5072851;28;20243;-62
2021/11/10 02:10:59;;;;;;;5.75;4.22;;;2.90;99.90;;;;;;5072088;28;20249;-60
2021/11/10 02:13:30;;;;;;;5.00;4.22;;;2.80;99.90;;;;;;5074195;28;20226;-62
2021/11/10 02:16:00;;;;;;;7.60;5.43;;;2.80;99.90;;;;;;5093198;28;20301;-61
2021/11/10 02:18:30;;;;;;;10.45;6.97;;;2.80;99.90;;;;;;5091581;28;20239;-62
2021/11/10 02:21:09;;;;;;;8.00;6.22;;;2.80;99.90;;;;;;5093409;28;20248;-61
2021/11/10 02:23:37;;;;;;;10.68;7.10;;;2.80;99.90;;;;;;5092834;28;20218;-62
2021/11/10 02:26:06;;;;;;;6.68;6.05;;;2.80;99.90;;;;;;5088046;28;20615;-61
2021/11/10 02:28:38;;;;;;;9.23;6.60;;;;;;;;;;5073650;28;20216;-61
2021/11/10 02:31:07;;;;;;;11.77;9.13;;;2.90;99.90;;;;;;5072803;28;20199;-61
2021/11/10 02:33:35;;;;;;;9.10;8.18;;;2.90;99.90;;;;;;5072369;28;20226;-61
2021/11/10 02:36:07;;;;;;;10.15;8.40;;;2.80;99.90;;;;;;5074614;28;20204;-61
2021/11/10 02:38:36;;;;;;;11.38;8.82;;;2.80;99.90;;;;;;5089023;28;20261;-63
2021/11/10 02:41:04;;;;;;;11.30;9.13;;;2.80;99.90;;;;;;5073694;28;20254;-60
2021/11/10 02:43:32;;;;;;;10.93;8.35;;;2.80;99.90;;;;;;5073412;28;20562;-60
2021/11/10 02:46:00;;;;;;;10.45;8.98;;;2.90;99.90;;;;;;5073578;28;20262;-62
2021/11/10 02:48:28;;;;;;;9.27;8.13;;;2.80;99.90;;;;;;5073161;28;20223;-60
2021/11/10 02:50:56;;;;;;;12.38;7.63;;;2.80;99.90;;;;;;5072389;28;20196;-60
2021/11/10 02:53:26;;;;;;;6.90;6.18;;;2.90;99.90;;;;;;5072994;28;20269;-60
2021/11/10 02:55:54;;;;;;;9.90;7.65;;;2.80;99.90;;;;;;5073344;28;20204;-63
2021/11/10 02:58:22;;;;;;;6.95;5.20;;;2.70;99.90;;;;;;5073001;28;20554;-63
2021/11/10 03:00:51;;;;;;;12.43;5.13;;;2.70;99.90;;;;;;5072272;28;20191;-60
2021/11/10 03:03:19;;;;;;;12.57;5.05;;;2.70;99.90;;;;;;5072718;28;20569;-61
2021/11/10 03:05:52;;;;;;;8.25;4.72;;;2.70;99.90;;;;;;5088434;28;20222;-62
2021/11/10 03:08:26;;;;;;;6.95;5.47;;;2.80;99.90;;;;;;5071662;28;20234;-61
2021/11/10 03:11:03;;;;;;;6.30;4.22;;;2.80;99.90;;;;;;5076127;28;20195;-60
2021/11/10 03:13:31;;;;;;;7.20;5.22;;;3.00;99.90;;;;;;5094033;28;20302;-60
2021/11/10 03:15:59;;;;;;;8.65;5.57;;;3.10;99.90;;;;;;5091938;28;20223;-61
2021/11/10 03:18:28;;;;;;;7.97;5.32;;;3.10;99.90;;;;;;5091636;28;20246;-63
2021/11/10 03:20:56;;;;;;;13.30;6.55;;;3.10;99.90;;;;;;5088384;28;20218;-61
2021/11/10 03:23:25;;;;;;;9.98;6.82;;;3.10;99.90;;;;;;5087276;28;20614;-61
2021/11/10 03:25:54;;;;;;;9.65;5.97;;;3.30;99.90;;;;;;5074456;28;20203;-62
2021/11/10 03:28:26;;;;;;;8.60;6.10;;;3.30;99.90;;;;;;5091443;28;20271;-61
2021/11/10 03:30:55;;;;;;;7.60;5.70;;;3.40;99.90;;;;;;5091976;28;20191;-60
2021/11/10 03:33:26;;;;;;;9.75;6.28;;;3.40;99.90;;;;;;5090716;28;20324;-59
2021/11/10 03:35:56;;;;;;;10.38;5.05;;;3.40;99.90;;;;;;5071252;28;20693;-63
2021/11/10 03:38:26;;;;;;;5.88;4.63;;;3.30;99.90;;;;;;5071150;28;20196;-63
2021/11/10 03:40:54;;;;;;;8.00;5.43;;;3.30;99.90;;;;;;5071386;28;20192;-60
2021/11/10 03:43:30;;;;;;;17.95;6.70;;;3.20;99.90;;;;;;5070853;28;20238;-60
2021/11/10 03:46:02;;;;;;;8.98;5.50;;;3.20;99.90;;;;;;5071062;28;20208;-62
2021/11/10 03:48:31;;;;;;;8.02;5.35;;;3.20;99.90;;;;;;5070965;28;20598;-62
2021/11/10 03:50:59;;;;;;;11.90;6.00;;;3.10;99.90;;;;;;5072276;28;20200;-60
2021/11/10 03:53:29;;;;;;;7.05;4.65;;;3.10;99.90;;;;;;5071758;28;20230;-60
2021/11/10 03:55:57;;;;;;;7.10;5.32;;;3.10;99.90;;;;;;5071971;28;20207;-61
2021/11/10 03:58:25;;;;;;;7.63;5.97;;;3.10;99.90;;;;;;5071886;28;20287;-61
2021/11/10 04:00:57;;;;;;;5.45;4.50;;;2.80;99.90;;;;;;5078452;28;20191;-60
2021/11/10 04:03:29;;;;;;;9.98;5.80;;;2.70;99.90;;;;;;5087415;27;20214;-59
2021/11/10 04:05:57;;;;;;;6.68;4.95;;;2.70;99.90;;;;;;5090593;28;20509;-61
2021/11/10 04:08:26;;;;;;;7.50;4.50;;;2.60;99.90;;;;;;5091959;28;20218;-62
2021/11/10 04:10:59;;;;;;;5.45;4.88;;;2.60;99.90;;;;;;5086882;28;20188;-59
2021/11/10 04:13:28;;;;;;;7.28;4.25;;;2.60;99.90;;;;;;5071554;28;20302;-60
2021/11/10 04:15:56;;;;;;;6.15;4.82;;;2.50;99.90;;;;;;5090899;28;20222;-61
2021/11/10 04:18:27;;;;;;;8.95;5.90;;;2.50;99.90;;;;;;5090486;28;20199;-62
2021/11/10 04:20:55;;;;;;;7.47;4.00;;;2.50;99.90;;;;;;5086886;28;20245;-60
2021/11/10 04:23:23;;;;;;;4.32;3.75;;;2.40;99.90;;;;;;5070208;28;20195;-60
2021/11/10 04:25:52;;;;;;;5.18;3.90;;;2.40;99.90;;;;;;5070805;28;20211;-62
2021/11/10 04:28:22;;;;;;;5.00;4.45;;;2.40;99.90;;;;;;5070311;28;20200;-63
2021/11/10 04:30:52;;;;;;;6.55;4.95;;;2.40;99.90;;;;;;5070608;28;20218;-60
2021/11/10 04:33:21;;;;;;;6.35;4.97;;;2.30;99.90;;;;;;5069504;28;20271;-61
2021/11/10 04:35:51;;;;;;;7.70;4.70;;;2.30;99.90;;;;;;5070567;28;20219;-62
2021/11/10 04:38:20;;;;;;;7.43;4.70;;;2.30;99.90;;;;;;5086960;28;20191;-60
2021/11/10 04:40:48;;;;;;;5.63;4.97;;;2.30;99.90;;;;;;5073780;28;20224;-60
2021/11/10 04:43:18;;;;;;;12.35;6.55;;;2.30;99.90;;;;;;5091282;28;20199;-60
2021/11/10 04:45:57;;;;;;;7.78;5.20;;;2.30;99.90;;;;;;5090697;28;20645;-61
2021/11/10 04:48:26;;;;;;;9.38;4.88;;;2.30;99.90;;;;;;5091471;28;20191;-63
2021/11/10 04:50:54;;;;;;;6.05;4.78;;;2.30;99.90;;;;;;5087212;28;20596;-60
2021/11/10 04:53:22;;;;;;;5.63;4.38;;;2.10;99.90;;;;;;5086575;28;20214;-61
2021/11/10 04:55:51;;;;;;;7.78;5.10;;;2.10;99.90;;;;;;5070031;28;20211;-61
2021/11/10 04:58:20;;;;;;;6.93;5.72;;;2.20;99.90;;;;;;5069912;28;20249;-61
2021/11/10 05:00:48;;;;;;;6.45;5.05;;;2.20;99.90;;;;;;5070664;28;20192;-60
2021/11/10 05:03:19;;;;;;;7.32;3.97;;;2.20;99.90;;;;;;5070039;28;20527;-60
2021/11/10 05:05:47;;;;;;;11.15;4.88;;;2.20;99.90;;;;;;5069793;28;20307;-62
2021/11/10 05:08:16;;;;;;;6.53;4.47;;;2.30;99.90;;;;;;5069879;28;20651;-62
2021/11/10 05:10:44;;;;;;;6.65;4.70;;;2.30;99.90;;;;;;5071779;28;20188;-61
2021/11/10 05:13:12;;;;;;;9.85;5.35;;;2.40;99.90;;;;;;5092967;28;20656;-60
2021/11/10 05:15:40;;;;;;;6.03;4.80;;;2.30;99.90;;;;;;5090106;28;20226;-62
2021/11/10 05:18:14;;;;;;;11.77;8.27;;;2.40;99.90;;;;;;5090652;28;20195;-62
2021/11/10 05:20:44;;;;;;;12.73;5.55;;;2.40;99.90;;;;;;5086261;28;20191;-62
2021/11/10 05:23:13;;;;;;;14.90;6.10;;;2.40;99.90;;;;;;5086602;28;20193;-60
2021/11/10 05:25:41;;;;;;;10.15;6.40;;;2.40;99.90;;;;;;5071136;28;20277;-61
2021/11/10 05:28:10;;;;;;;6.47;5.20;;;2.40;99.90;;;;;;5071327;28;20184;-61
2021/11/10 05:30:38;;;;;;;8.57;6.20;;;2.40;99.90;;;;;;5071072;28;20279;-61
2021/11/10 05:33:06;;;;;;;7.72;4.85;;;2.40;99.90;;;;;;5071294;28;20238;-59
2021/11/10 05:35:35;;;;;;;7.30;5.55;;;2.30;99.90;;;;;;5070354;28;20227;-62
2021/11/10 05:38:04;;;;;;;5.70;4.68;;;2.30;99.90;;;;;;5071268;28;20649;-61
2021/11/10 05:40:33;;;;;;;5.95;4.68;;;2.30;99.90;;;;;;5071022;28;20223;-61
2021/11/10 05:43:01;;;;;;;10.02;4.68;;;2.30;99.90;;;;;;5071176;28;20206;-60
2021/11/10 05:45:29;;;;;;;8.55;4.97;;;2.30;99.90;;;;;;5071132;28;20273;-62
2021/11/10 05:47:58;;;;;;;8.70;5.05;;;2.30;99.90;;;;;;5074752;28;20216;-62
2021/11/10 05:50:26;;;;;;;7.90;5.13;;;2.20;99.90;;;;;;5073877;28;20627;-63
2021/11/10 05:52:55;;;;;;;9.07;5.30;;;2.20;99.90;;;;;;5073544;28;20210;-60
2021/11/10 05:55:25;;;;;;;12.18;5.55;;;2.20;99.90;;;;;;5073778;28;20274;-61
2021/11/10 05:57:54;;;;;;;9.18;5.80;;;2.20;99.90;;;;;;5094269;28;20202;-63
2021/11/10 06:00:22;;;;;;;11.82;6.72;;;2.10;99.90;;;;;;5094410;28;20252;-63
2021/11/10 06:02:50;;;;;;;8.52;7.05;;;2.10;99.90;;;;;;5094979;28;20187;-60
2021/11/10 06:05:19;;;;;;;7.70;6.38;;;2.20;99.90;;;;;;5082304;28;20216;-61
2021/11/10 06:07:47;;;;;;;15.50;8.93;;;2.20;99.90;;;;;;5074525;28;20211;-61
2021/11/10 06:10:21;;;;;;;13.68;8.80;;;2.10;99.90;;;;;;5073999;28;20223;-61
2021/11/10 06:12:50;;;;;;;11.93;7.47;;;2.10;99.90;;;;;;5074039;28;20196;-60
2021/11/10 06:15:19;;;;;;;13.27;7.43;;;2.10;99.90;;;;;;5090418;28;20697;-62
2021/11/10 06:17:47;;;;;;;7.95;6.75;;;2.20;99.90;;;;;;5094389;28;20214;-61
2021/11/10 06:20:16;;;;;;;9.00;5.70;;;2.20;99.90;;;;;;5091444;28;20277;-62
2021/11/10 06:22:44;;;;;;;8.90;6.60;;;2.20;99.90;;;;;;5073091;28;20219;-60
2021/11/10 06:25:20;;;;;;;15.63;8.05;;;2.10;99.90;;;;;;5072124;28;20229;-60
2021/11/10 06:27:50;;;;;;;9.65;6.55;;;2.10;99.90;;;;;;5088141;28;20199;-61
2021/11/10 06:30:18;;;;;;;12.18;5.93;;;2.10;99.90;;;;;;5073634;28;20228;-62
2021/11/10 06:32:46;;;;;;;19.50;7.28;;;2.10;99.90;;;;;;5089651;28;20187;-59
2021/11/10 06:35:14;;;;;;;12.68;7.18;;;2.10;99.90;;;;;;5073172;28;20265;-60
2021/11/10 06:37:42;;;;;;;9.70;7.18;;;2.10;99.90;;;;;;5073986;28;20192;-61
2021/11/10 06:40:12;;;;;;;12.02;7.07;;;2.10;99.90;;;;;;5073270;28;20835;-61
2021/11/10 06:42:41;;;;;;;12.90;8.25;;;2.10;99.90;;;;;;5091435;28;20207;-61
2021/11/10 06:45:11;;;;;;;12.55;7.95;;;2.00;99.90;;;;;;5093126;28;20272;-60
2021/11/10 06:47:39;;;;;;;13.10;8.45;;;2.00;99.90;;;;;;5094221;28;20191;-62
2021/11/10 06:50:08;;;;;;;13.68;8.57;;;2.00;99.90;;;;;;5093410;28;20251;-61
2021/11/10 06:52:37;;;;;;;14.48;8.13;;;2.00;99.90;;;;;;5090340;28;20206;-60
2021/11/10 06:55:07;;;;;;;12.32;7.18;;;2.10;99.90;;;;;;5092820;28;20292;-60
2021/11/10 06:57:36;;;;;;;10.00;7.60;;;2.10;99.90;;;;;;5082356;28;20207;-61
2021/11/10 07:00:06;;;;;;;13.52;7.00;;;2.10;99.90;;;;;;5093205;28;20215;-62
2021/11/10 07:02:36;;;;;;;10.75;6.45;;;2.10;99.90;;;;;;5092707;28;20603;-60
2021/11/10 07:05:05;;;;;;;8.95;6.18;;;2.00;99.90;;;;;;5092704;28;20302;-60
2021/11/10 07:07:33;;;;;;;9.52;6.00;;;2.20;99.90;;;;;;5073295;28;20208;-61
2021/11/10 07:10:02;;;;;;;16.13;6.93;;;2.40;99.90;;;;;;5081609;28;20592;-60
2021/11/10 07:12:30;;;;;;;9.90;5.63;;;2.50;99.90;;;;;;5076209;28;20199;-61
2021/11/10 07:14:58;;;;;;;7.75;6.18;;;2.50;99.90;;;;;;5072338;28;20486;-60
2021/11/10 07:17:26;;;;;;;13.93;6.95;;;2.50;99.90;;;;;;5073302;28;20251;-62
2021/11/10 07:19:56;;;;;;;8.35;5.60;;;2.40;99.90;;;;;;5079499;28;20769;-61
2021/11/10 07:22:24;;;;;;;6.18;4.40;;;2.40;99.90;;;;;;5093214;28;20195;-61
2021/11/10 07:24:53;;;;;;;10.05;5.70;;;2.40;99.90;;;;;;5092108;28;20227;-60
2021/11/10 07:27:21;;;;;;;6.93;5.38;;;2.40;99.90;;;;;;5088465;28;20253;-61
2021/11/10 07:29:49;;;;;;;6.55;5.78;;;2.50;99.90;;;;;;5092449;28;20708;-61
2021/11/10 07:32:17;;;;;;;9.18;4.78;;;2.60;99.90;;;;;;5093140;28;20199;-60
2021/11/10 07:34:46;;;;;;;8.82;4.88;;;2.60;99.90;;;;;;5091836;28;20251;-60
2021/11/10 07:37:15;;;;;;;6.45;4.68;;;2.60;99.90;;;;;;5078800;28;20207;-62
2021/11/10 07:39:46;;;;;;;5.45;4.80;;;2.70;99.90;;;;;;5091643;28;20760;-61
2021/11/10 07:42:15;;;;;;;9.90;4.85;;;2.90;99.90;;;;;;5084739;28;20195;-60
2021/11/10 07:44:43;;;;;;;8.85;4.28;;;3.00;99.90;;;;;;5090830;28;20219;-62
2021/11/10 07:47:14;;;;;;;6.60;4.32;;;3.10;99.90;;;;;;5092975;28;20548;-61
2021/11/10 07:49:45;;;;;;;5.43;3.95;;;3.20;99.90;;;;;;5092391;28;20218;-62
2021/11/10 07:52:15;;;;;;;10.10;5.90;;;3.30;99.90;;;;;;5076089;28;20192;-61
2021/11/10 07:54:48;;;;;;;6.18;5.00;;;3.30;99.90;;;;;;5071787;28;20306;-61
2021/11/10 07:57:17;;;;;;;6.22;5.13;;;3.50;99.90;;;;;;5070861;28;20216;-60
2021/11/10 07:59:46;;;;;;;7.75;5.63;;;3.50;99.90;;;;;;5090719;28;20247;-62
2021/11/10 08:02:14;;;;;;;6.97;6.28;;;3.70;99.90;;;;;;5092653;28;20564;-61
2021/11/10 08:04:42;;;;;;;9.13;6.45;;;3.80;99.90;;;;;;5085335;28;20219;-60
2021/11/10 08:07:10;;;;;;;8.25;5.10;;;3.90;99.90;;;;;;5072365;28;20620;-61
2021/11/10 08:09:40;;;;;;;10.63;6.95;;;4.00;99.90;;;;;;5071164;28;20306;-62
2021/11/10 08:12:09;;;;;;;7.55;6.65;;;4.10;99.90;;;;;;5090165;28;20660;-62
2021/11/10 08:14:37;;;;;;;8.02;5.88;;;4.10;99.90;;;;;;5091605;28;20566;-60
2021/11/10 08:17:05;;;;;;;7.90;5.18;;;4.20;99.90;;;;;;5090680;28;20263;-60
2021/11/10 08:19:34;;;;;;;6.55;4.72;;;4.30;99.90;;;;;;5091637;28;20215;-61
2021/11/10 08:22:03;;;;;;;6.45;4.55;;;4.30;99.90;;;;;;5072463;28;20207;-62
2021/11/10 08:24:32;;;;;;;7.20;5.40;;;4.40;99.90;;;;;;5072820;28;20219;-61
2021/11/10 08:27:02;;;;;;;7.93;6.20;;;4.50;99.90;;;;;;5090840;28;20211;-61
2021/11/10 08:29:30;;;;;;;9.60;5.75;;;4.60;99.90;;;;;;5090166;28;20222;-61
2021/11/10 08:31:58;;;;;;;8.27;7.55;;;4.80;99.90;;;;;;5092474;28;20191;-61
2021/11/10 08:34:27;;;;;;;7.40;6.60;;;5.00;99.90;;;;;;5079346;28;20254;-61
2021/11/10 08:36:55;;;;;;;14.18;9.35;;;5.10;99.90;;;;;;5071924;28;20231;-61
2021/11/10 08:39:25;;;;;;;15.82;7.68;;;5.30;99.90;;;;;;5080063;28;20219;-61
2021/11/10 08:41:54;;;;;;;10.63;6.95;;;5.40;99.90;;;;;;5079788;28;20659;-62
2021/11/10 08:44:24;;;;;;;9.70;8.50;;;5.50;99.90;;;;;;5085879;28;20246;-60
2021/11/10 08:46:52;;;;;;;8.80;7.10;;;5.60;99.90;;;;;;5090788;28;20257;-60
2021/11/10 08:49:20;;;;;;;7.50;6.85;;;5.70;99.90;;;;;;5088970;28;20226;-61
2021/11/10 08:51:49;;;;;;;8.93;7.95;;;5.80;99.90;;;;;;5053800;28;20665;-61
2021/11/10 08:54:19;;;;;;;8.43;6.15;;;5.90;99.90;;;;;;5069876;28;20219;-60
2021/11/10 08:56:47;;;;;;;7.97;6.97;;;6.00;99.90;;;;;;5071601;28;20223;-60
2021/11/10 08:59:16;;;;;;;9.68;7.75;;;6.20;99.90;;;;;;5071233;28;20247;-62
2021/11/10 09:01:45;;;;;;;11.38;7.30;;;6.30;99.90;;;;;;5070445;28;20200;-61
2021/11/10 09:04:15;;;;;;;11.10;7.20;;;6.50;99.90;;;;;;5071185;28;20216;-60
2021/11/10 09:06:43;;;;;;;8.65;6.68;;;6.50;99.90;;;;;;5091695;28;20211;-61
2021/11/10 09:09:12;;;;;;;10.15;5.70;;;6.70;99.90;;;;;;5091447;28;20364;-62
2021/11/10 09:11:41;;;;;;;13.27;8.18;;;6.70;99.90;;;;;;5088959;28;20241;-60
2021/11/10 09:14:09;;;;;;;10.30;6.10;;;6.90;99.90;;;;;;5091091;28;20215;-59
2021/11/10 09:16:38;;;;;;;7.55;6.60;;;7.00;99.90;;;;;;5094292;28;20716;-60
2021/11/10 09:19:09;;;;;;;9.57;6.60;;;7.20;99.90;;;;;;5090019;28;20240;-62
2021/11/10 09:21:38;;;;;;;6.88;6.22;;;7.40;99.90;;;;;;5094588;28;20602;-61
2021/11/10 09:24:06;;;;;;;9.85;6.90;;;7.70;99.90;;;;;;5094985;28;20942;-60
2021/11/10 09:26:37;;;;;;;8.10;6.27;;;7.70;99.90;;;;;;5086056;28;20759;-60
2021/11/10 09:29:05;;;;;;;5.63;5.03;;;7.90;99.90;;;;;;5074978;28;20462;-61
2021/11/10 09:31:36;;;;;;;5.40;4.17;;;8.00;99.90;;;;;;5073890;28;20422;-61
2021/11/10 09:34:10;;;;;;;6.75;4.82;;;8.10;99.90;;;;;;5074597;28;20459;-61
2021/11/10 09:36:46;;;;;;;12.30;5.40;;;8.20;99.90;;;;;;5090605;28;20222;-60
2021/11/10 09:39:17;;;;;;;8.23;5.10;;;8.40;99.90;;;;;;5073340;28;20527;-60
2021/11/10 09:41:48;;;;;;;5.37;4.50;;;8.40;99.90;;;;;;5083327;28;20456;-61
2021/11/10 09:44:17;;;;;;;11.90;5.13;;;8.50;99.90;;;;;;5094368;28;20510;-60
2021/11/10 09:46:46;;;;;;;8.03;5.30;;;8.50;99.90;;;;;;5095212;28;20457;-60
2021/11/10 09:49:17;;;;;;;8.30;5.40;;;8.60;99.90;;;;;;5094683;28;20469;-61
2021/11/10 09:51:49;;;;;;;9.50;6.20;;;8.60;99.90;;;;;;5075370;28;20422;-60
2021/11/10 09:54:18;;;;;;;6.60;4.87;;;8.60;99.90;;;;;;5073789;28;20500;-60
2021/11/10 09:56:47;;;;;;;6.93;5.47;;;8.60;99.90;;;;;;5074520;28;20466;-60
2021/11/10 09:59:18;;;;;;;12.20;5.73;;;8.50;99.90;;;;;;5074212;28;20870;-61
2021/11/10 10:01:46;;;;;;;7.93;5.77;;;8.50;99.90;;;;;;5074890;28;20426;-61
2021/11/10 10:04:15;;;;;;;7.97;6.10;;;8.50;99.90;;;;;;5073757;28;20552;-60
2021/11/10 10:06:45;;;;;;;8.07;5.47;;;8.50;99.90;;;;;;5074527;28;20441;-60
2021/11/10 10:09:15;;;;;;;11.37;6.30;;;8.50;99.90;;;;;;5073945;28;20464;-61
2021/11/10 10:11:43;;;;;;;8.90;5.50;;;8.50;99.90;;;;;;5074511;28;20450;-60
2021/11/10 10:14:11;;;;;;;7.53;5.00;;;8.50;99.90;;;;;;5089035;28;20509;-60
2021/11/10 10:16:40;;;;;;;8.07;6.10;;;8.50;99.90;;;;;;5094579;28;20827;-60
2021/11/10 10:19:10;;;;;;;7.53;5.40;;;8.50;99.90;;;;;;5075709;28;20965;-62
2021/11/10 10:21:43;;;;;;;6.80;4.77;;;8.50;99.90;;;;;;5075709;28;20203;-61
2021/11/10 10:24:15;;;;;;;7.18;5.85;;;8.50;99.90;;;;;;5073472;28;20462;-60
2021/11/10 10:26:44;;;;;;;8.57;5.37;;;8.50;99.90;;;;;;5074438;28;20207;-60
2021/11/10 10:29:13;;;;;;;11.50;6.10;;;8.50;99.90;;;;;;5073650;28;20461;-62
2021/11/10 10:31:43;;;;;;;6.70;5.80;;;8.50;99.90;;;;;;5073477;28;20459;-61
2021/11/10 10:34:14;;;;;;;7.80;5.03;;;8.50;99.90;;;;;;5074475;28;20477;-61
2021/11/10 10:36:45;;;;;;;9.77;5.10;;;8.50;99.90;;;;;;5090694;28;20449;-60
2021/11/10 10:39:16;;;;;;;7.23;4.57;;;8.50;99.90;;;;;;5093589;28;21012;-60
2021/11/10 10:41:49;;;;;;;6.87;4.93;;;8.60;99.90;;;;;;5092319;28;20536;-62
2021/11/10 10:44:20;;;;;;;7.83;5.60;;;8.60;99.90;;;;;;5092677;28;20476;-60
2021/11/10 10:46:50;;;;;;;8.10;5.53;;;8.60;99.90;;;;;;5094224;28;20488;-60
2021/11/10 10:49:21;;;;;;;7.00;5.50;;;8.60;99.90;;;;;;5093074;28;20478;-60
2021/11/10 10:51:51;;;;;;;5.43;4.90;;;8.70;99.90;;;;;;5081016;28;20470;-62
2021/11/10 10:54:21;;;;;;;15.73;5.90;;;8.70;99.90;;;;;;5071700;28;21041;-60
2021/11/10 10:56:57;;;;;;;7.03;5.90;;;8.70;99.90;;;;;;5073827;28;20520;-59
2021/11/10 10:59:26;;;;;;;8.33;5.90;;;8.80;99.90;;;;;;5073243;28;20467;-62
2021/11/10 11:01:57;;;;;;;9.93;5.57;;;8.90;99.90;;;;;;5086371;28;21140;-61
2021/11/10 11:04:29;;;;;;;8.77;5.03;;;8.90;99.90;;;;;;5084099;28;20470;-61
2021/11/10 11:07:01;;;;;;;9.70;6.00;;;9.00;99.90;;;;;;5073481;28;20839;-60
2021/11/10 11:09:32;;;;;;;11.13;6.17;;;9.00;99.90;;;;;;5074926;28;20457;-62
2021/11/10 11:12:06;;;;;;;8.23;5.90;;;9.00;99.90;;;;;;5083978;28;20539;-62
2021/11/10 11:14:42;;;;;;;7.40;5.00;;;9.10;99.90;;;;;;5092692;28;20449;-60
2021/11/10 11:17:27;;;;;;;8.37;6.80;;;9.10;99.90;;;;;;5093427;28;20464;-61
2021/11/10 11:19:57;;;;;;;7.87;5.63;;;9.10;99.90;;;;;;5091602;28;20534;-61
2021/11/10 11:22:28;;;;;;;10.53;6.00;;;9.10;99.90;;;;;;5092185;28;20429;-61
2021/11/10 11:24:56;;;;;;;7.10;5.47;;;9.10;99.90;;;;;;5091435;28;20477;-60
2021/11/10 11:27:29;;;;;;;6.70;4.80;;;9.10;99.90;;;;;;5076722;28;20441;-60
2021/11/10 11:30:10;;;;;;;9.87;5.67;;;9.20;99.90;;;;;;5072513;28;20870;-63
2021/11/10 11:32:40;;;;;;;11.57;5.00;;;9.30;99.90;;;;;;5071708;28;20426;-62
2021/11/10 11:35:20;;;;;;;8.70;6.07;;;9.30;99.90;;;;;;5071821;28;20482;-61
2021/11/10 11:37:49;;;;;;;8.20;5.40;;;9.30;99.90;;;;;;5078980;28;20453;-59
2021/11/10 11:40:21;;;;;;;8.20;5.73;;;9.30;99.90;;;;;;5092490;28;20465;-61
2021/11/10 11:42:52;;;;;;;8.43;5.67;;;9.20;99.90;;;;;;5072144;28;20484;-62
2021/11/10 11:45:23;;;;;;;11.20;7.20;;;9.30;99.90;;;;;;5083219;28;20452;-60
2021/11/10 11:47:53;;;;;;;11.20;7.30;;;9.30;99.90;;;;;;5091757;28;20434;-60
2021/11/10 11:50:22;;;;;;;6.80;5.70;;;9.40;99.90;;;;;;5091069;28;20852;-61
2021/11/10 11:52:52;;;;;;;8.57;6.10;;;9.40;99.90;;;;;;5091630;28;20421;-62
2021/11/10 11:55:23;;;;;;;9.13;6.33;;;9.50;99.90;;;;;;5091940;28;20479;-60
2021/11/10 11:58:03;;;;;;;12.90;6.90;;;9.40;99.90;;;;;;5079840;28;20489;-60
2021/11/10 12:00:34;;;;;;;8.30;6.10;;;9.50;99.90;;;;;;5091799;28;20461;-61
2021/11/10 12:03:03;;;;;;;8.97;6.63;;;9.60;99.90;;;;;;5092586;28;20520;-61
2021/11/10 12:05:31;;;;;;;8.43;5.33;;;9.50;99.90;;;;;;5085852;28;20470;-60
2021/11/10 12:08:00;;;;;;;8.60;5.77;;;9.50;99.90;;;;;;5072199;28;20436;-60
2021/11/10 12:10:40;;;;;;;15.33;6.97;;;9.50;99.90;;;;;;5071229;28;21006;-60
2021/11/10 12:13:14;;;;;;;9.23;6.30;;;9.50;99.90;;;;;;5086298;28;20434;-61
2021/11/10 12:16:09;;;;;;;11.10;6.97;;;9.50;99.90;;;;;;5092045;28;20502;-60
2021/11/10 12:18:43;;;;;;;8.63;6.77;;;9.60;99.90;;;;;;5091213;28;20471;-60
2021/11/10 12:21:12;;;;;;;6.93;5.37;;;9.80;99.90;;;;;;5071788;28;20429;-60
2021/11/10 12:24:12;;;;;;;10.63;5.90;;;9.90;99.90;;;;;;5075364;28;20982;-60
2021/11/10 12:27:30;;;;;;;9.03;4.37;;;10.00;99.90;;;;;;5080541;28;20457;-60
2021/11/10 12:30:12;;;;;;;8.47;5.40;;;10.00;99.90;;;;;;5069004;28;20458;-61
2021/11/10 12:32:59;;;;;;;7.77;5.63;;;10.10;99.90;;;;;;5088992;28;20865;-63
2021/11/10 12:35:33;;;;;;;7.73;5.50;;;10.20;99.90;;;;;;5085429;28;20523;-60
2021/11/10 12:38:04;;;;;;;11.10;6.20;;;10.10;99.90;;;;;;5071756;28;20473;-60
2021/11/10 12:40:33;;;;;;;10.00;5.70;;;10.10;99.90;;;;;;5070939;28;20541;-61
2021/11/10 12:43:14;;;;;;;9.83;5.63;;;10.10;99.90;;;;;;5075559;28;20448;-61
2021/11/10 12:45:55;;;;;;;7.17;5.80;;;10.10;99.90;;;;;;5091933;28;20814;-61
2021/11/10 12:48:32;;;;;;;9.50;6.27;;;10.00;99.90;;;;;;5091262;28;20429;-59
2021/11/10 12:51:18;;;;;;;6.60;4.93;;;10.00;99.90;;;;;;5090508;28;20445;-62
2021/11/10 12:53:50;;;;;;;7.90;5.80;;;10.10;99.90;;;;;;5090113;28;20527;-61
2021/11/10 12:56:42;;;;;;;10.23;6.03;;;10.10;99.90;;;;;;5091454;28;20458;-60
2021/11/10 12:59:11;;;;;;;9.50;6.50;;;10.20;99.90;;;;;;5091226;28;20538;-61
2021/11/10 13:01:42;;;;;;;9.33;6.23;;;10.00;99.90;;;;;;5092010;28;20421;-60
2021/11/10 13:04:11;;;;;;;11.80;6.50;;;10.00;99.90;;;;;;5090941;28;20470;-61
2021/11/10 13:06:46;;;;;;;9.33;6.50;;;10.10;99.90;;;;;;5072107;28;20557;-60
2021/11/10 13:09:28;;;;;;;7.50;6.30;;;10.10;99.90;;;;;;5072053;28;20530;-60
2021/11/10 13:11:57;;;;;;;7.50;6.40;;;10.00;99.90;;;;;;5079412;28;20468;-61